Time;durP1;ratioP1;P1;durP2;ratioP2;P2;SDS_P1;SDS_P2;PMS_P1;PMS_P2;Temp;Humidity;BMP_temperature;BMP_pressure;BME280_temperature;BME280_humidity;BME280_pressure;Samples;Min_cycle;Max_cycle;Signal;HPM_P1;HPM_P2
2023/10/18 00:01:25;;;;;;;;;;;17.70;94.20;;;;;;5010128;28;19921;-87
2023/10/18 00:03:54;;;;;;;;;;;17.80;94.10;;;;;;5021698;28;20231;-86
2023/10/18 00:06:22;;;;;;;;;;;17.70;94.30;;;;;;5018231;28;19931;-85
2023/10/18 00:08:49;;;;;;;;;;;17.70;94.20;;;;;;5024876;28;19927;-85
2023/10/18 00:11:15;;;;;;;;;;;17.70;94.30;;;;;;5016160;28;19919;-84
2023/10/18 00:13:41;;;;;;;;;;;17.70;94.40;;;;;;5021807;28;19968;-87
2023/10/18 00:16:07;;;;;;;;;;;17.90;94.30;;;;;;5025271;28;20389;-89
2023/10/18 00:18:33;;;;;;;;;;;17.90;94.20;;;;;;5017210;28;19912;-88
2023/10/18 00:21:03;;;;;;;;;;;17.90;94.20;;;;;;5023850;28;19913;-86
2023/10/18 00:23:31;;;;;;;;;;;17.90;94.30;;;;;;5023439;28;19909;-87
2023/10/18 00:26:00;;;;;;;;;;;17.80;94.40;;;;;;5011207;28;20004;-87
2023/10/18 00:28:28;;;;;;;;;;;17.80;94.40;;;;;;5019832;28;19921;-85
2023/10/18 00:30:54;;;;;;;;;;;17.70;94.60;;;;;;5020337;28;20471;-85
2023/10/18 00:33:19;;;;;;;;;;;17.70;94.60;;;;;;5023824;28;19913;-86
2023/10/18 00:35:48;;;;;;;;;;;17.80;94.60;;;;;;5023438;28;19916;-86
2023/10/18 00:38:16;;;;;;;;;;;17.90;94.40;;;;;;5019386;28;20007;-85
2023/10/18 00:40:45;;;;;;;;;;;17.80;94.60;;;;;;5023759;28;19920;-85
2023/10/18 00:43:19;;;;;;;;;;;17.80;94.60;;;;;;5019260;28;20286;-86
2023/10/18 00:45:47;;;;;;;;;;;17.70;94.80;;;;;;5013706;28;19913;-86
2023/10/18 00:48:13;;;;;;;;;;;17.80;94.80;;;;;;5022913;28;19932;-85
2023/10/18 00:50:42;;;;;;;;;;;17.70;94.90;;;;;;5022570;28;19917;-85
2023/10/18 00:53:09;;;;;;;;;;;17.90;94.70;;;;;;5024458;28;19919;-85
2023/10/18 00:55:34;;;;;;;;;;;17.70;94.80;;;;;;5018115;28;19913;-81
2023/10/18 00:58:01;;;;;;;;;;;17.90;94.60;;;;;;5014591;28;19920;-83
2023/10/18 01:00:26;;;;;;;;;;;17.80;94.70;;;;;;5014680;28;19921;-84
2023/10/18 01:02:57;;;;;;;;;;;17.80;94.70;;;;;;5016971;28;20295;-82
2023/10/18 01:05:22;;;;;;;;;;;17.90;94.70;;;;;;5012932;28;19909;-84
2023/10/18 01:07:52;;;;;;;;;;;17.90;94.60;;;;;;5019818;28;19921;-84
2023/10/18 01:10:23;;;;;;;;;;;18.10;94.50;;;;;;5020168;28;20581;-84
2023/10/18 01:12:52;;;;;;;;;;;18.00;94.60;;;;;;5013506;28;19913;-83
2023/10/18 01:15:19;;;;;;;;;;;18.10;94.50;;;;;;5021663;28;19912;-83
2023/10/18 01:17:47;;;;;;;;;;;18.20;94.40;;;;;;5014691;28;20411;-85
2023/10/18 01:22:57;;;;;;;;;;;18.10;94.20;;;;;;5022487;28;19979;-83
2023/10/18 01:25:24;;;;;;;;;;;18.10;94.40;;;;;;5017436;28;20341;-81
2023/10/18 01:27:51;;;;;;;;;;;18.00;94.30;;;;;;5018517;28;19924;-81
2023/10/18 01:30:19;;;;;;;;;;;18.10;94.30;;;;;;5014889;28;19962;-82
2023/10/18 01:32:45;;;;;;;;;;;17.90;94.50;;;;;;5021806;28;19912;-82
2023/10/18 01:35:13;;;;;;;;;;;18.10;94.50;;;;;;5015470;28;19920;-82
2023/10/18 01:37:39;;;;;;;;;;;18.00;94.30;;;;;;5021314;28;20677;-82
2023/10/18 01:40:20;;;;;;;;;;;18.20;94.30;;;;;;5022738;28;20555;-82
2023/10/18 01:42:48;;;;;;;;;;;18.20;94.20;;;;;;5022552;28;20065;-84
2023/10/18 01:45:21;;;;;;;;;;;18.20;94.30;;;;;;5021355;28;20623;-83
2023/10/18 01:47:48;;;;;;;;;;;18.30;94.20;;;;;;5022593;28;20816;-84
2023/10/18 01:50:14;;;;;;;;;;;18.20;94.40;;;;;;5017308;28;19917;-83
2023/10/18 01:52:41;;;;;;;;;;;18.30;94.20;;;;;;5022829;28;20293;-82
2023/10/18 01:55:09;;;;;;;;;;;18.40;94.20;;;;;;5019537;28;20041;-83
2023/10/18 01:57:34;;;;;;;;;;;18.30;94.10;;;;;;5022122;28;20008;-83
2023/10/18 02:00:00;;;;;;;;;;;18.40;94.10;;;;;;5022595;28;20550;-84
2023/10/18 02:02:26;;;;;;;;;;;18.40;94.10;;;;;;5016670;28;19913;-82
2023/10/18 02:04:53;;;;;;;;;;;18.40;94.20;;;;;;5020686;28;20308;-84
2023/10/18 02:07:19;;;;;;;;;;;18.50;94.10;;;;;;5023458;28;19921;-88
2023/10/18 02:09:48;;;;;;;;;;;18.40;94.10;;;;;;5019584;28;19920;-86
2023/10/18 02:12:23;;;;;;;;;;;18.50;94.00;;;;;;5016132;28;19958;-86
2023/10/18 02:14:49;;;;;;;;;;;18.60;93.80;;;;;;5022070;28;19959;-90
2023/10/18 02:17:18;;;;;;;;;;;18.70;93.60;;;;;;5024345;28;19913;-87
2023/10/18 02:19:44;;;;;;;;;;;18.70;93.50;;;;;;5018036;28;19949;-85
2023/10/18 02:22:10;;;;;;;;;;;18.70;93.60;;;;;;5026976;28;19912;-87
2023/10/18 02:24:38;;;;;;;;;;;18.70;93.70;;;;;;5024475;28;20040;-85
2023/10/18 02:27:08;;;;;;;;;;;18.80;93.50;;;;;;5026103;28;20444;-83
2023/10/18 02:29:34;;;;;;;;;;;18.90;93.10;;;;;;5023717;28;19913;-82
2023/10/18 02:32:04;;;;;;;;;;;18.80;93.30;;;;;;5024841;28;19936;-82
2023/10/18 02:34:33;;;;;;;;;;;18.80;93.40;;;;;;5024410;28;19920;-82
2023/10/18 02:37:00;;;;;;;;;;;18.90;93.10;;;;;;5026133;28;19952;-85
2023/10/18 02:39:32;;;;;;;;;;;18.90;92.90;;;;;;5025967;28;19924;-85
2023/10/18 02:41:58;;;;;;;;;;;18.80;93.10;;;;;;5022354;28;19913;-85
2023/10/18 02:44:24;;;;;;;;;;;18.80;93.10;;;;;;5025704;28;19995;-84
2023/10/18 02:46:51;;;;;;;;;;;18.90;93.00;;;;;;5016109;28;20418;-84
2023/10/18 02:49:17;;;;;;;;;;;19.00;92.70;;;;;;5026284;28;19913;-84
2023/10/18 02:51:44;;;;;;;;;;;19.00;92.60;;;;;;5010103;28;19913;-83
2023/10/18 02:56:42;;;;;;;;;;;18.90;92.90;;;;;;5010823;28;19913;-86
2023/10/18 02:59:08;;;;;;;;;;;18.90;92.90;;;;;;5017122;28;19917;-85
2023/10/18 03:01:36;;;;;;;;;;;19.00;92.70;;;;;;5019119;28;20339;-84
2023/10/18 03:04:06;;;;;;;;;;;18.90;92.90;;;;;;5024431;28;19913;-85
2023/10/18 03:06:33;;;;;;;;;;;19.00;92.80;;;;;;5017958;28;19920;-85
2023/10/18 03:09:00;;;;;;;;;;;19.00;92.80;;;;;;5018942;28;20012;-88
2023/10/18 03:11:26;;;;;;;;;;;19.00;92.70;;;;;;5026205;28;19983;-85
2023/10/18 03:13:57;;;;;;;;;;;18.90;92.90;;;;;;5026438;28;19948;-85
2023/10/18 03:19:09;;;;;;;;;;;18.90;92.90;;;;;;5022672;28;20513;-82
2023/10/18 03:21:35;;;;;;;;;;;19.00;92.80;;;;;;5023684;28;20028;-82
2023/10/18 03:24:01;;;;;;;;;;;18.80;93.20;;;;;;5023457;28;19999;-82
2023/10/18 03:26:37;;;;;;;;;;;18.90;92.90;;;;;;5021707;28;19921;-84
2023/10/18 03:29:15;;;;;;;;;;;18.90;92.90;;;;;;5012285;28;19921;-83
2023/10/18 03:31:41;;;;;;;;;;;19.00;92.90;;;;;;5020392;28;20441;-84
2023/10/18 03:34:13;;;;;;;;;;;18.40;96.60;;;;;;5017928;28;19909;-84
2023/10/18 03:36:48;;;;;;;;;;;18.80;95.60;;;;;;5021411;28;19958;-85
2023/10/18 03:39:17;;;;;;;;;;;18.80;95.30;;;;;;5023088;28;20011;-83
2023/10/18 03:41:43;;;;;;;;;;;18.90;94.90;;;;;;5021038;28;19912;-84
2023/10/18 03:44:09;;;;;;;;;;;19.00;94.00;;;;;;5025030;28;19991;-84
2023/10/18 03:46:47;;;;;;;;;;;18.90;94.00;;;;;;5014594;28;19917;-84
2023/10/18 03:49:22;;;;;;;;;;;18.90;93.80;;;;;;5020751;28;19924;-84
2023/10/18 03:51:49;;;;;;;;;;;18.80;93.70;;;;;;5019206;28;19963;-83
2023/10/18 03:54:15;;;;;;;;;;;19.00;93.50;;;;;;5024663;28;19912;-84
2023/10/18 03:56:42;;;;;;;;;;;19.00;93.30;;;;;;5018195;28;20850;-86
2023/10/18 03:59:24;;;;;;;;;;;18.90;93.30;;;;;;5019444;28;19935;-83
2023/10/18 04:02:15;;;;;;;;;;;18.80;93.50;;;;;;5018530;28;19913;-83
2023/10/18 04:04:45;;;;;;;;;;;18.60;93.80;;;;;;5021989;28;19936;-81
2023/10/18 04:07:16;;;;;;;;;;;18.80;93.50;;;;;;5021663;28;19991;-82
2023/10/18 04:12:18;;;;;;;;;;;18.90;93.20;;;;;;5023480;28;20354;-81
2023/10/18 04:14:53;;;;;;;;;;;18.90;93.20;;;;;;5015695;28;20016;-82
2023/10/18 04:17:20;;;;;;;;;;;19.00;93.10;;;;;;5015124;28;19912;-83
2023/10/18 04:19:47;;;;;;;;;;;18.90;93.30;;;;;;5016841;28;20004;-82
2023/10/18 04:22:13;;;;;;;;;;;19.00;93.20;;;;;;5024580;28;19912;-82
2023/10/18 04:24:39;;;;;;;;;;;19.10;93.10;;;;;;5021352;28;20442;-83
2023/10/18 04:27:05;;;;;;;;;;;18.90;93.20;;;;;;5022612;28;20464;-83
2023/10/18 04:29:33;;;;;;;;;;;19.00;93.20;;;;;;5024761;28;19913;-84
2023/10/18 04:32:03;;;;;;;;;;;19.00;93.10;;;;;;5024409;28;19916;-84
2023/10/18 04:34:29;;;;;;;;;;;19.00;93.10;;;;;;5024056;28;19947;-85
2023/10/18 04:36:55;;;;;;;;;;;19.10;93.10;;;;;;5024317;28;20000;-82
2023/10/18 04:39:21;;;;;;;;;;;19.00;93.30;;;;;;5022537;28;19920;-80
2023/10/18 04:41:46;;;;;;;;;;;19.00;93.10;;;;;;5023658;28;19913;-83
2023/10/18 04:44:18;;;;;;;;;;;19.10;93.20;;;;;;5023888;28;19916;-83
2023/10/18 04:46:47;;;;;;;;;;;18.90;93.50;;;;;;5024316;28;19913;-85
2023/10/18 04:54:10;;;;;;;;;;;19.00;93.40;;;;;;5024915;28;19909;-83
2023/10/18 04:56:38;;;;;;;;;;;19.00;93.40;;;;;;5024378;28;19920;-82
2023/10/18 04:59:11;;;;;;;;;;;19.00;93.40;;;;;;5020857;28;20003;-85
2023/10/18 05:01:56;;;;;;;;;;;19.00;93.50;;;;;;5023806;28;19913;-86
2023/10/18 05:04:24;;;;;;;;;;;19.10;93.20;;;;;;5023498;28;19943;-86
2023/10/18 05:06:54;;;;;;;;;;;19.00;93.50;;;;;;5023325;28;19959;-85
2023/10/18 05:09:31;;;;;;;;;;;18.80;93.70;;;;;;5020766;28;19921;-84
2023/10/18 05:11:57;;;;;;;;;;;18.90;93.70;;;;;;5020241;28;19963;-85
2023/10/18 05:14:35;;;;;;;;;;;18.90;93.80;;;;;;5022610;28;19913;-85
2023/10/18 05:20:09;;;;;;;;;;;18.90;93.90;;;;;;5017320;28;19912;-85
2023/10/18 05:22:41;;;;;;;;;;;18.90;93.90;;;;;;5021307;28;20199;-86
2023/10/18 05:28:09;;;;;;;;;;;18.80;94.00;;;;;;5023244;28;19928;-85
2023/10/18 05:36:11;;;;;;;;;;;19.10;93.40;;;;;;5022944;28;19920;-84
2023/10/18 05:43:47;;;;;;;;;;;19.00;93.70;;;;;;5023244;28;19913;-88
2023/10/18 05:46:12;;;;;;;;;;;19.00;93.80;;;;;;5021704;28;20521;-87
2023/10/18 05:48:41;;;;;;;;;;;19.00;93.60;;;;;;5023014;28;19936;-87
2023/10/18 05:51:32;;;;;;;;;;;19.00;93.60;;;;;;5022512;28;19952;-85
2023/10/18 05:53:59;;;;;;;;;;;19.00;93.70;;;;;;5023884;28;19913;-83
2023/10/18 05:56:29;;;;;;;;;;;18.90;93.80;;;;;;5026434;28;20766;-82
2023/10/18 06:01:40;;;;;;;;;;;18.90;93.90;;;;;;5024974;28;19927;-83
2023/10/18 06:04:05;;;;;;;;;;;19.00;93.70;;;;;;5025532;28;19908;-83
2023/10/18 06:06:31;;;;;;;;;;;19.10;93.70;;;;;;5026832;28;19923;-84
2023/10/18 06:08:57;;;;;;;;;;;19.10;93.60;;;;;;5055654;28;19917;-82
2023/10/18 06:11:23;;;;;;;;;;;19.10;93.50;;;;;;5026516;28;19952;-85
2023/10/18 06:13:49;;;;;;;;;;;19.00;94.10;;;;;;5025771;28;20024;-85
2023/10/18 06:16:20;;;;;;;;;;;18.90;94.80;;;;;;5024806;28;19920;-83
2023/10/18 06:18:46;;;;;;;;;;;18.90;94.80;;;;;;5026096;28;19913;-83
2023/10/18 06:21:18;;;;;;;;;;;18.90;94.70;;;;;;5025761;28;19924;-82
2023/10/18 06:23:54;;;;;;;;;;;19.00;94.70;;;;;;5026620;28;20112;-82
2023/10/18 06:26:33;;;;;;;;;;;19.00;94.70;;;;;;5020884;28;19921;-83
2023/10/18 06:29:02;;;;;;;;;;;19.00;94.70;;;;;;5023104;28;19916;-83
2023/10/18 06:31:31;;;;;;;;;;;19.10;95.60;;;;;;5026753;28;20380;-83
2023/10/18 06:33:58;;;;;;;;;;;19.00;96.20;;;;;;5026854;28;19909;-82
2023/10/18 06:36:32;;;;;;;;;;;19.00;96.20;;;;;;5027452;28;19943;-82
2023/10/18 06:38:58;;;;;;;;;;;19.00;96.10;;;;;;5027274;28;19909;-82
2023/10/18 06:41:29;;;;;;;;;;;19.00;96.00;;;;;;5027594;28;20003;-82
2023/10/18 06:43:55;;;;;;;;;;;19.00;96.30;;;;;;5027139;28;19940;-82
2023/10/18 06:46:26;;;;;;;;;;;19.10;95.90;;;;;;5026219;28;19912;-82
2023/10/18 06:48:54;;;;;;;;;;;19.10;95.80;;;;;;5026844;28;19995;-83
2023/10/18 06:51:30;;;;;;;;;;;19.10;95.50;;;;;;5026106;28;20402;-83
2023/10/18 06:53:59;;;;;;;;;;;19.10;95.40;;;;;;5026292;28;20331;-83
2023/10/18 06:56:26;;;;;;;;;;;19.10;95.50;;;;;;5026661;28;20438;-83
2023/10/18 06:58:53;;;;;;;;;;;19.20;95.20;;;;;;5025082;28;20723;-83
2023/10/18 07:01:26;;;;;;;;;;;19.30;94.90;;;;;;5026876;28;19920;-82
2023/10/18 07:03:51;;;;;;;;;;;19.40;94.70;;;;;;5031092;28;19913;-83
2023/10/18 07:06:24;;;;;;;;;;;19.40;94.60;;;;;;5027168;28;19913;-82
2023/10/18 07:08:50;;;;;;;;;;;19.50;94.50;;;;;;5025808;28;19917;-83
2023/10/18 07:11:18;;;;;;;;;;;19.50;94.40;;;;;;5026268;28;19909;-83
2023/10/18 07:13:47;;;;;;;;;;;19.40;94.50;;;;;;5017480;28;19920;-82
2023/10/18 07:16:25;;;;;;;;;;;19.50;94.60;;;;;;5026238;28;19909;-83
2023/10/18 07:19:04;;;;;;;;;;;19.70;93.80;;;;;;5025627;28;20411;-83
2023/10/18 07:21:32;;;;;;;;;;;19.60;94.10;;;;;;5023462;28;20011;-82
2023/10/18 07:24:02;;;;;;;;;;;19.70;94.00;;;;;;5021654;28;20277;-82
2023/10/18 07:26:29;;;;;;;;;;;19.80;94.00;;;;;;5023989;28;19970;-82
2023/10/18 07:28:55;;;;;;;;;;;19.70;93.90;;;;;;5025448;28;20642;-82
2023/10/18 07:31:24;;;;;;;;;;;19.80;94.00;;;;;;5024393;28;19963;-82
2023/10/18 07:33:50;;;;;;;;;;;19.70;93.80;;;;;;5024101;28;19909;-82
2023/10/18 07:36:19;;;;;;;;;;;19.70;93.80;;;;;;5025550;28;19963;-83
2023/10/18 07:38:48;;;;;;;;;;;19.80;93.70;;;;;;5019792;28;19917;-82
2023/10/18 07:41:14;;;;;;;;;;;19.80;93.60;;;;;;5025652;28;19909;-82
2023/10/18 07:43:43;;;;;;;;;;;19.90;93.70;;;;;;5024063;28;19921;-83
2023/10/18 07:46:18;;;;;;;;;;;19.90;93.90;;;;;;5023931;28;19913;-81
2023/10/18 07:48:47;;;;;;;;;;;19.60;96.30;;;;;;5023639;28;19924;-82
2023/10/18 07:51:31;;;;;;;;;;;19.80;95.50;;;;;;5025628;28;19945;-82
2023/10/18 07:53:57;;;;;;;;;;;19.90;95.50;;;;;;5024332;28;19915;-82
2023/10/18 07:56:32;;;;;;;;;;;19.90;95.20;;;;;;5023626;28;19909;-82
2023/10/18 07:59:27;;;;;;;;;;;19.90;94.80;;;;;;5023248;28;19955;-82
2023/10/18 08:02:07;;;;;;;;;;;19.90;94.40;;;;;;5023327;28;19956;-82
2023/10/18 08:04:33;;;;;;;;;;;19.90;94.50;;;;;;5018736;28;19916;-82
2023/10/18 08:07:00;;;;;;;;;;;19.90;94.80;;;;;;5024881;28;20366;-82
2023/10/18 08:09:29;;;;;;;;;;;19.90;94.50;;;;;;5022762;28;19917;-82
2023/10/18 08:11:56;;;;;;;;;;;19.90;94.40;;;;;;5023100;28;19948;-82
2023/10/18 08:14:24;;;;;;;;;;;19.80;94.40;;;;;;5023248;28;20788;-82
2023/10/18 08:16:56;;;;;;;;;;;19.90;94.30;;;;;;5021092;28;20403;-82
2023/10/18 08:19:23;;;;;;;;;;;20.00;94.30;;;;;;5025973;28;19909;-82
2023/10/18 08:24:35;;;;;;;;;;;20.40;93.70;;;;;;5021485;28;19908;-82
2023/10/18 08:27:09;;;;;;;;;;;20.60;93.50;;;;;;5021747;28;20064;-83
2023/10/18 08:29:38;;;;;;;;;;;20.70;93.60;;;;;;5022739;28;20595;-82
2023/10/18 08:32:14;;;;;;;;;;;20.80;93.50;;;;;;5024788;28;19909;-82
2023/10/18 08:34:44;;;;;;;;;;;20.80;93.30;;;;;;5024329;28;19913;-82
2023/10/18 08:37:15;;;;;;;;;;;20.80;93.30;;;;;;5024668;28;19909;-82
2023/10/18 08:39:52;;;;;;;;;;;20.80;93.40;;;;;;5021813;28;20447;-82
2023/10/18 08:42:20;;;;;;;;;;;20.70;93.60;;;;;;5012406;28;20380;-82
2023/10/18 08:44:46;;;;;;;;;;;20.60;94.20;;;;;;5024132;28;20428;-82
2023/10/18 08:47:15;;;;;;;;;;;20.60;94.40;;;;;;5020304;28;19920;-82
2023/10/18 08:49:44;;;;;;;;;;;20.60;93.90;;;;;;5021508;28;19912;-82
2023/10/18 08:52:10;;;;;;;;;;;20.60;94.10;;;;;;5017975;28;19909;-82
2023/10/18 08:54:42;;;;;;;;;;;20.40;96.30;;;;;;5021489;28;19909;-82
2023/10/18 08:57:08;;;;;;;;;;;20.50;96.70;;;;;;5014335;28;20000;-82
2023/10/18 08:59:42;;;;;;;;;;;20.50;96.60;;;;;;5024487;28;19955;-82
2023/10/18 09:02:21;;;;;;;;;;;20.60;96.60;;;;;;5022273;28;21300;-82
2023/10/18 09:04:52;;;;;;;;;;;20.80;96.20;;;;;;5024105;28;19912;-83
2023/10/18 09:07:21;;;;;;;;;;;21.00;95.90;;;;;;5021819;28;19913;-82
2023/10/18 09:09:53;;;;;;;;;;;21.10;94.60;;;;;;5018438;28;19941;-82
2023/10/18 09:12:31;;;;;;;;;;;21.20;94.30;;;;;;5022273;28;19909;-83
2023/10/18 09:14:58;;;;;;;;;;;21.50;93.80;;;;;;5019680;28;19909;-82
2023/10/18 09:17:24;;;;;;;;;;;21.60;93.10;;;;;;5021584;28;19915;-82
2023/10/18 09:19:53;;;;;;;;;;;21.60;92.80;;;;;;5019332;28;19910;-83
2023/10/18 09:22:19;;;;;;;;;;;21.70;92.70;;;;;;5021981;28;19909;-82
2023/10/18 09:24:46;;;;;;;;;;;21.80;91.90;;;;;;5020585;28;20448;-82
2023/10/18 09:27:12;;;;;;;;;;;22.00;91.90;;;;;;5021427;28;19921;-82
2023/10/18 09:29:39;;;;;;;;;;;22.00;91.80;;;;;;5021841;28;19917;-82
2023/10/18 09:32:09;;;;;;;;;;;22.30;91.60;;;;;;5019866;28;19959;-81
2023/10/18 09:34:35;;;;;;;;;;;22.30;91.60;;;;;;5021743;28;20585;-82
2023/10/18 09:37:04;;;;;;;;;;;21.80;92.40;;;;;;5019064;28;19916;-82
2023/10/18 09:39:37;;;;;;;;;;;21.30;93.40;;;;;;5024001;28;19948;-82
2023/10/18 09:42:12;;;;;;;;;;;20.90;94.10;;;;;;5019555;28;19910;-82
2023/10/18 09:44:44;;;;;;;;;;;20.60;95.20;;;;;;5021826;28;19996;-82
2023/10/18 09:47:10;;;;;;;;;;;20.50;95.70;;;;;;5021543;28;19913;-82
2023/10/18 09:49:38;;;;;;;;;;;20.60;95.60;;;;;;5023031;28;19967;-82
2023/10/18 09:52:07;;;;;;;;;;;20.70;95.10;;;;;;5021882;28;19916;-82
2023/10/18 09:54:36;;;;;;;;;;;20.70;95.90;;;;;;5021939;28;19909;-82
2023/10/18 09:57:02;;;;;;;;;;;20.80;95.50;;;;;;5021370;28;19909;-82
2023/10/18 09:59:37;;;;;;;;;;;20.80;95.60;;;;;;5023792;28;19963;-83
2023/10/18 10:02:15;;;;;;;;;;;20.70;96.20;;;;;;5018593;28;20783;-81
2023/10/18 10:04:42;;;;;;;;;;;20.00;99.90;;;;;;5015125;28;19909;-82
2023/10/18 10:09:59;;;;;;;;;;;19.30;99.90;;;;;;5021446;28;20637;-81
2023/10/18 10:12:28;;;;;;;;;;;19.30;99.90;;;;;;5020840;28;20426;-82
2023/10/18 10:14:54;;;;;;;;;;;19.40;99.90;;;;;;5023634;28;19908;-82
2023/10/18 10:17:20;;;;;;;;;;;19.50;99.90;;;;;;5023126;28;19966;-82
2023/10/18 10:19:51;;;;;;;;;;;19.20;99.90;;;;;;5020773;28;19909;-81
2023/10/18 10:22:17;;;;;;;;;;;19.20;99.90;;;;;;5021078;28;19909;-82
2023/10/18 10:24:44;;;;;;;;;;;18.90;99.90;;;;;;5023389;28;20012;-81
2023/10/18 10:27:27;;;;;;;;;;;18.90;99.90;;;;;;5023575;28;20684;-81
2023/10/18 10:29:56;;;;;;;;;;;18.80;99.90;;;;;;5022599;28;19913;-83
2023/10/18 10:32:26;;;;;;;;;;;18.90;99.90;;;;;;5019121;28;19912;-82
2023/10/18 10:35:07;;;;;;;;;;;18.80;99.90;;;;;;5021904;28;19913;-82
2023/10/18 10:37:36;;;;;;;;;;;18.80;99.90;;;;;;5020818;28;19943;-82
2023/10/18 10:40:19;;;;;;;;;;;19.00;99.90;;;;;;5025129;28;20399;-82
2023/10/18 10:42:48;;;;;;;;;;;18.90;99.90;;;;;;5017680;28;19908;-82
2023/10/18 10:45:35;;;;;;;;;;;18.70;99.90;;;;;;5022392;28;20020;-82
2023/10/18 10:48:16;;;;;;;;;;;18.50;99.90;;;;;;5024544;28;20657;-81
2023/10/18 10:50:52;;;;;;;;;;;18.40;99.90;;;;;;5024412;28;19996;-82
2023/10/18 10:53:31;;;;;;;;;;;18.30;99.90;;;;;;5020643;28;20295;-82
2023/10/18 10:55:57;;;;;;;;;;;18.10;99.90;;;;;;5019800;28;19916;-82
2023/10/18 10:58:29;;;;;;;;;;;18.00;99.90;;;;;;5022893;28;19909;-82
2023/10/18 11:01:04;;;;;;;;;;;18.00;99.90;;;;;;5026021;28;19909;-82
2023/10/18 11:03:31;;;;;;;;;;;18.10;99.90;;;;;;5026500;28;19920;-82
2023/10/18 11:05:58;;;;;;;;;;;18.00;99.90;;;;;;5025251;28;19908;-81
2023/10/18 11:08:25;;;;;;;;;;;18.00;99.90;;;;;;5025703;28;19918;-81
2023/10/18 11:10:50;;;;;;;;;;;18.10;99.90;;;;;;5023491;28;20379;-81
2023/10/18 11:13:22;;;;;;;;;;;18.20;99.90;;;;;;5025615;28;19909;-81
2023/10/18 11:15:54;;;;;;;;;;;18.20;99.90;;;;;;5025331;28;19909;-82
2023/10/18 11:18:20;;;;;;;;;;;18.00;99.90;;;;;;5024694;28;19909;-81
2023/10/18 11:21:18;;;;;;;;;;;17.90;99.90;;;;;;5025093;28;19909;-81
2023/10/18 11:23:46;;;;;;;;;;;18.10;99.90;;;;;;5021687;28;19913;-82
2023/10/18 11:26:19;;;;;;;;;;;17.70;99.90;;;;;;5014079;28;20303;-82
2023/10/18 11:28:48;;;;;;;;;;;17.60;99.90;;;;;;5022434;28;20394;-82
2023/10/18 11:31:14;;;;;;;;;;;17.70;99.90;;;;;;5024013;28;19909;-82
2023/10/18 11:34:14;;;;;;;;;;;17.80;99.90;;;;;;5023299;28;21202;-82
2023/10/18 11:36:32;;;;;;;;;;;17.70;99.90;;;;;;5023253;28;19966;-81
2023/10/18 11:39:08;;;;;;;;;;;17.70;99.90;;;;;;5025098;28;19913;-82
2023/10/18 11:41:34;;;;;;;;;;;17.70;99.90;;;;;;5023813;28;19919;-82
2023/10/18 11:44:06;;;;;;;;;;;17.60;99.90;;;;;;5022767;28;19916;-82
2023/10/18 11:46:46;;;;;;;;;;;17.80;99.90;;;;;;5024539;28;19912;-83
2023/10/18 11:49:12;;;;;;;;;;;17.60;99.90;;;;;;5018289;28;19929;-81
2023/10/18 11:51:45;;;;;;;;;;;17.70;99.90;;;;;;5021471;28;19915;-82
2023/10/18 11:54:13;;;;;;;;;;;17.80;99.90;;;;;;5031098;28;19916;-82
2023/10/18 11:56:39;;;;;;;;;;;17.60;99.90;;;;;;5021099;28;19917;-82
2023/10/18 11:59:05;;;;;;;;;;;17.60;99.90;;;;;;5026619;28;20445;-82
2023/10/18 12:01:33;;;;;;;;;;;17.70;99.90;;;;;;5024146;28;20230;-82
2023/10/18 12:03:59;;;;;;;;;;;17.80;99.90;;;;;;5023524;28;19909;-82
2023/10/18 12:06:26;;;;;;;;;;;17.90;99.90;;;;;;5019140;28;19920;-81
2023/10/18 12:11:37;;;;;;;;;;;18.10;99.90;;;;;;5022424;28;19915;-81
2023/10/18 12:14:04;;;;;;;;;;;18.30;99.90;;;;;;5035931;28;19920;-82
2023/10/18 12:16:32;;;;;;;;;;;18.30;99.90;;;;;;5024009;28;19909;-82
2023/10/18 12:18:58;;;;;;;;;;;18.20;99.90;;;;;;5024379;28;19919;-82
2023/10/18 12:21:29;;;;;;;;;;;18.40;99.90;;;;;;5024500;28;20534;-82
2023/10/18 12:23:55;;;;;;;;;;;18.30;99.90;;;;;;5030631;28;19909;-82
2023/10/18 12:26:24;;;;;;;;;;;18.30;99.90;;;;;;5024474;28;20020;-82
2023/10/18 12:28:55;;;;;;;;;;;18.30;99.90;;;;;;5017729;28;19917;-82
2023/10/18 12:31:26;;;;;;;;;;;18.30;99.90;;;;;;5020561;28;19908;-82
2023/10/18 12:33:57;;;;;;;;;;;18.30;99.90;;;;;;5025045;28;19912;-82
2023/10/18 12:36:23;;;;;;;;;;;18.30;99.90;;;;;;5023697;28;19909;-82
2023/10/18 12:38:49;;;;;;;;;;;18.30;99.90;;;;;;5023418;28;20659;-82
2023/10/18 12:43:44;;;;;;;;;;;18.30;99.90;;;;;;5024337;28;19958;-81
2023/10/18 12:46:15;;;;;;;;;;;18.20;99.90;;;;;;5024865;28;20031;-81
2023/10/18 12:48:41;;;;;;;;;;;18.20;99.90;;;;;;5024885;28;20030;-81
2023/10/18 12:51:12;;;;;;;;;;;18.10;99.90;;;;;;5025039;28;20388;-81
2023/10/18 12:53:39;;;;;;;;;;;18.10;99.90;;;;;;5025527;28;20026;-81
2023/10/18 12:58:58;;;;;;;;;;;18.30;99.90;;;;;;5024967;28;19955;-81
2023/10/18 13:01:31;;;;;;;;;;;18.40;99.90;;;;;;5024417;28;20676;-81
2023/10/18 13:03:57;;;;;;;;;;;18.40;99.90;;;;;;5014190;28;19913;-81
2023/10/18 13:06:30;;;;;;;;;;;18.40;99.90;;;;;;5018061;28;19971;-81
2023/10/18 13:14:11;;;;;;;;;;;18.80;99.90;;;;;;5022121;28;19909;-82
2023/10/18 13:16:37;;;;;;;;;;;18.80;99.90;;;;;;5022582;28;19909;-81
2023/10/18 13:19:06;;;;;;;;;;;18.70;99.90;;;;;;5022180;28;19909;-81
2023/10/18 13:21:32;;;;;;;;;;;18.70;99.90;;;;;;5014628;28;19909;-81
2023/10/18 13:24:16;;;;;;;;;;;18.60;99.90;;;;;;5013658;28;20807;-81
2023/10/18 13:26:49;;;;;;;;;;;18.50;99.90;;;;;;5015481;28;20453;-81
2023/10/18 16:10:06;;;;;;;0.00;0.00;;;17.90;99.90;;;;;;5095100;27;20445;-80
2023/10/18 16:12:32;;;;;;;;;;;17.50;99.90;;;;;;5104728;28;20465;-80
2023/10/18 16:14:58;;;;;;;0.00;0.00;;;17.40;99.90;;;;;;5096297;28;20049;-79
2023/10/18 16:17:24;;;;;;;0.00;0.00;;;17.40;99.90;;;;;;5095033;28;20020;-79
2023/10/18 16:19:51;;;;;;;0.00;0.00;;;17.30;99.90;;;;;;5098764;28;20040;-79
2023/10/18 16:22:17;;;;;;;0.00;0.00;;;17.40;99.90;;;;;;5104589;28;20024;-80
2023/10/18 16:24:43;;;;;;;0.00;0.00;;;17.40;99.90;;;;;;5098334;28;20109;-80
2023/10/18 16:27:10;;;;;;;0.00;0.00;;;17.50;99.90;;;;;;5100281;28;20035;-80
2023/10/18 16:29:37;;;;;;;0.00;0.00;;;17.40;99.90;;;;;;5099155;28;20431;-81
2023/10/18 16:32:03;;;;;;;0.00;0.00;;;17.40;99.90;;;;;;5103901;28;20470;-80
2023/10/18 16:34:28;;;;;;;0.00;0.00;;;17.30;99.90;;;;;;5101451;27;20103;-83
2023/10/18 16:36:54;;;;;;;0.00;0.00;;;17.20;99.90;;;;;;5099327;28;20624;-82
2023/10/18 16:39:22;;;;;;;0.00;0.00;;;17.20;99.90;;;;;;5100736;28;20051;-83
2023/10/18 16:41:49;;;;;;;0.00;0.00;;;17.30;99.90;;;;;;5089692;28;20508;-84
2023/10/18 16:44:16;;;;;;;;;;;17.30;99.90;;;;;;5100354;28;20052;-84
2023/10/18 16:46:42;;;;;;;0.00;0.00;;;17.30;99.90;;;;;;5093948;28;19908;-83
2023/10/18 16:49:12;;;;;;;0.00;0.00;;;17.30;99.90;;;;;;5100394;28;20031;-78
2023/10/18 16:51:41;;;;;;;0.00;0.00;;;17.30;99.90;;;;;;5098977;28;20515;-79
2023/10/18 16:54:07;;;;;;;0.00;0.00;;;17.30;99.90;;;;;;5087629;28;20032;-79
2023/10/18 16:56:33;;;;;;;0.00;0.00;;;17.20;99.90;;;;;;5101135;28;20389;-79
2023/10/18 16:58:59;;;;;;;0.00;0.00;;;17.10;99.90;;;;;;5100683;28;20282;-78
2023/10/18 17:01:26;;;;;;;0.00;0.00;;;17.10;99.90;;;;;;5089327;28;20030;-78
2023/10/18 17:03:51;;;;;;;0.00;0.00;;;17.00;99.90;;;;;;5100502;28;20032;-81
2023/10/18 17:06:18;;;;;;;0.00;0.00;;;16.90;99.90;;;;;;5094496;28;20042;-79
2023/10/18 17:08:44;;;;;;;0.00;0.00;;;16.80;99.90;;;;;;5111384;28;20055;-79
2023/10/18 17:11:12;;;;;;;;;;;16.60;99.90;;;;;;5079307;28;20024;-81
2023/10/18 17:13:39;;;;;;;0.00;0.00;;;16.60;99.90;;;;;;5093906;28;19973;-78
2023/10/18 17:16:06;;;;;;;;;;;16.50;99.90;;;;;;5093453;28;20019;-79
2023/10/18 17:18:32;;;;;;;0.00;0.00;;;16.50;99.90;;;;;;5095781;28;20036;-80
2023/10/18 17:20:58;;;;;;;0.00;0.00;;;16.40;99.90;;;;;;5109016;27;20085;-79
2023/10/18 17:23:25;;;;;;;0.00;0.00;;;16.30;99.90;;;;;;5108749;27;20046;-79
2023/10/18 17:25:51;;;;;;;;;;;16.30;99.90;;;;;;5099294;28;20020;-82
2023/10/18 17:28:18;;;;;;;0.00;0.00;;;16.30;99.90;;;;;;5105159;28;19989;-82
2023/10/18 17:30:44;;;;;;;0.00;0.00;;;16.20;99.90;;;;;;5096669;28;20020;-78
2023/10/18 17:33:11;;;;;;;0.00;0.00;;;16.30;99.90;;;;;;5107375;28;20020;-79
2023/10/18 17:35:37;;;;;;;;;;;16.30;99.90;;;;;;5107622;28;20115;-79
2023/10/18 17:38:04;;;;;;;0.00;0.00;;;16.30;99.90;;;;;;5107079;28;19999;-79
2023/10/18 17:40:29;;;;;;;;;;;16.30;99.90;;;;;;5111253;27;20071;-78
2023/10/18 17:42:55;;;;;;;0.00;0.00;;;16.30;99.90;;;;;;5102281;28;20000;-79
2023/10/18 17:45:24;;;;;;;0.00;0.00;;;16.40;99.90;;;;;;5102343;28;20024;-83
2023/10/18 17:47:50;;;;;;;0.00;0.00;;;16.40;99.90;;;;;;5105789;28;20028;-78
2023/10/18 17:50:21;;;;;;;0.00;0.00;;;16.40;99.90;;;;;;5104565;28;20586;-79
2023/10/18 17:52:48;;;;;;;0.05;0.05;;;16.30;99.90;;;;;;5114301;27;20360;-79